Time;durP1;ratioP1;P1;durP2;ratioP2;P2;SDS_P1;SDS_P2;PMS_P1;PMS_P2;Temp;Humidity;BMP_temperature;BMP_pressure;BME280_temperature;BME280_humidity;BME280_pressure;Samples;Min_cycle;Max_cycle;Signal;HPM_P1;HPM_P2
2023/07/17 00:00:22;;;;;;;6.30;4.13;;;23.60;67.90;;;;;;5038030;28;20040;-69
2023/07/17 00:03:07;;;;;;;6.05;3.80;;;23.60;68.60;;;;;;5063579;28;20039;-70
2023/07/17 00:05:56;;;;;;;5.13;3.10;;;23.60;68.30;;;;;;5071075;28;20135;-69
2023/07/17 00:08:42;;;;;;;6.15;3.72;;;23.60;68.40;;;;;;5066548;28;20029;-70
2023/07/17 00:11:28;;;;;;;4.57;2.78;;;23.60;68.40;;;;;;5054288;28;20060;-69
2023/07/17 00:14:14;;;;;;;8.07;3.63;;;23.60;68.40;;;;;;5050866;28;20640;-69
2023/07/17 00:17:01;;;;;;;4.25;2.92;;;23.60;68.40;;;;;;5050563;28;20704;-68
2023/07/17 00:19:57;;;;;;;10.13;3.47;;;23.60;68.50;;;;;;5052467;28;20040;-69
2023/07/17 00:22:43;;;;;;;6.70;3.22;;;23.60;68.50;;;;;;5068700;28;20076;-70
2023/07/17 00:25:29;;;;;;;4.95;2.58;;;23.60;68.20;;;;;;5062807;28;20037;-70
2023/07/17 00:28:15;;;;;;;5.45;2.60;;;23.60;67.90;;;;;;5055658;28;20045;-70
2023/07/17 00:31:01;;;;;;;6.80;3.00;;;23.60;67.80;;;;;;5056125;28;20056;-70
2023/07/17 00:33:46;;;;;;;6.28;3.70;;;23.60;67.90;;;;;;5051309;28;20047;-70
2023/07/17 00:36:32;;;;;;;8.02;3.35;;;23.60;67.90;;;;;;5054322;28;20045;-69
2023/07/17 00:39:19;;;;;;;5.72;3.08;;;23.60;67.60;;;;;;5060437;28;20124;-69
2023/07/17 00:42:05;;;;;;;4.90;2.75;;;23.50;67.50;;;;;;5063874;28;20051;-69
2023/07/17 00:44:51;;;;;;;4.00;2.97;;;23.50;67.50;;;;;;5052773;28;20078;-69
2023/07/17 00:47:37;;;;;;;5.82;3.13;;;23.40;67.40;;;;;;5070962;28;20032;-69
2023/07/17 00:50:24;;;;;;;5.88;2.72;;;23.40;67.90;;;;;;5047666;28;20043;-68
2023/07/17 00:53:10;;;;;;;4.20;3.17;;;23.50;68.10;;;;;;5054258;28;20509;-71
2023/07/17 00:55:56;;;;;;;5.53;3.25;;;23.50;68.20;;;;;;5050065;28;20158;-68
2023/07/17 00:58:42;;;;;;;4.30;3.03;;;23.50;68.40;;;;;;5051168;28;20039;-69
2023/07/17 01:01:28;;;;;;;5.50;3.00;;;23.50;68.20;;;;;;5056256;28;20125;-69
2023/07/17 01:04:14;;;;;;;5.57;3.20;;;23.50;68.20;;;;;;5050574;28;20097;-69
2023/07/17 01:07:00;;;;;;;4.95;3.25;;;23.50;68.10;;;;;;5038964;28;20044;-70
2023/07/17 01:09:46;;;;;;;6.30;2.97;;;23.40;68.00;;;;;;5053214;28;20044;-70
2023/07/17 01:12:36;;;;;;;5.03;3.38;;;23.40;68.00;;;;;;5050870;28;20033;-69
2023/07/17 01:15:22;;;;;;;5.13;3.00;;;23.40;68.10;;;;;;5051215;28;20033;-71
2023/07/17 01:18:08;;;;;;;5.10;2.80;;;23.30;68.20;;;;;;5050492;28;20029;-72
2023/07/17 01:20:54;;;;;;;5.40;2.95;;;23.30;68.30;;;;;;5049884;28;20041;-72
2023/07/17 01:23:40;;;;;;;3.90;2.38;;;23.30;68.20;;;;;;5049312;28;20037;-72
2023/07/17 01:26:26;;;;;;;5.15;2.47;;;23.20;68.40;;;;;;5054140;28;20063;-72
2023/07/17 01:29:12;;;;;;;4.95;2.92;;;23.30;68.30;;;;;;5061591;28;20036;-72
2023/07/17 01:31:58;;;;;;;4.32;2.50;;;23.20;68.20;;;;;;5034673;28;20052;-71
2023/07/17 01:34:44;;;;;;;5.72;3.53;;;23.20;68.10;;;;;;5050455;28;20033;-69
2023/07/17 01:37:30;;;;;;;5.53;3.10;;;23.20;68.20;;;;;;5054386;28;20056;-70
2023/07/17 01:40:17;;;;;;;6.82;3.00;;;23.20;68.40;;;;;;5051514;28;20051;-69
2023/07/17 01:43:04;;;;;;;5.88;3.08;;;23.20;68.40;;;;;;5050005;28;20430;-69
2023/07/17 01:45:50;;;;;;;4.00;3.10;;;23.20;68.30;;;;;;5050193;28;20033;-69
2023/07/17 01:48:36;;;;;;;3.35;2.60;;;23.20;68.20;;;;;;5049410;28;20040;-70
2023/07/17 01:51:22;;;;;;;9.98;2.90;;;23.20;68.40;;;;;;5049981;28;20031;-70
2023/07/17 01:54:07;;;;;;;6.47;2.97;;;23.20;68.20;;;;;;5051806;28;20112;-70
2023/07/17 01:56:53;;;;;;;5.53;2.97;;;23.20;68.10;;;;;;5050324;28;20025;-70
2023/07/17 01:59:39;;;;;;;6.25;3.08;;;23.10;68.20;;;;;;5048547;28;20171;-70
2023/07/17 02:02:25;;;;;;;8.13;2.85;;;23.10;68.00;;;;;;5040599;28;20040;-70
2023/07/17 02:05:11;;;;;;;5.57;3.08;;;23.10;68.10;;;;;;5054626;28;20029;-70
2023/07/17 02:07:57;;;;;;;4.28;2.53;;;23.10;67.90;;;;;;5050471;28;20033;-70
2023/07/17 02:10:44;;;;;;;9.35;2.97;;;23.10;68.00;;;;;;5048657;28;20044;-69
2023/07/17 02:13:30;;;;;;;6.47;3.28;;;23.00;67.90;;;;;;5069387;28;20379;-69
2023/07/17 02:16:16;;;;;;;4.00;2.92;;;23.00;68.10;;;;;;5056907;28;20414;-70
2023/07/17 02:19:02;;;;;;;7.22;3.20;;;23.00;68.20;;;;;;5052657;28;20112;-71
2023/07/17 02:21:48;;;;;;;3.65;2.50;;;22.90;68.10;;;;;;5048553;28;20072;-71
2023/07/17 02:24:34;;;;;;;4.80;2.53;;;22.90;68.20;;;;;;5049275;28;20060;-71
2023/07/17 02:27:20;;;;;;;4.18;2.50;;;22.80;68.10;;;;;;5050661;28;20543;-71
2023/07/17 02:30:06;;;;;;;4.05;2.60;;;22.80;68.00;;;;;;5042834;28;20120;-66
2023/07/17 02:32:52;;;;;;;7.65;3.17;;;22.70;68.10;;;;;;5067173;28;20044;-67
2023/07/17 02:35:38;;;;;;;5.00;2.58;;;22.70;68.10;;;;;;5067393;28;20044;-67
2023/07/17 02:38:24;;;;;;;5.47;2.92;;;22.60;68.20;;;;;;5069365;28;20040;-67
2023/07/17 02:41:10;;;;;;;4.47;2.55;;;22.50;68.40;;;;;;5065487;28;20296;-67
2023/07/17 02:43:56;;;;;;;5.63;2.83;;;22.50;68.40;;;;;;5049244;28;20029;-66
2023/07/17 02:46:42;;;;;;;4.38;2.70;;;22.40;68.60;;;;;;5048631;28;20478;-66
2023/07/17 02:49:28;;;;;;;4.43;2.50;;;22.40;68.50;;;;;;5047433;28;20662;-67
2023/07/17 02:52:14;;;;;;;4.82;2.88;;;22.30;68.50;;;;;;5050307;28;20037;-67
2023/07/17 02:55:04;;;;;;;9.70;3.50;;;22.20;68.70;;;;;;5049352;28;20490;-67
2023/07/17 02:57:50;;;;;;;3.80;2.72;;;22.20;69.10;;;;;;5049604;28;20405;-67
2023/07/17 03:00:36;;;;;;;5.78;2.95;;;22.10;69.10;;;;;;5053960;28;20048;-66
2023/07/17 03:03:22;;;;;;;6.35;3.00;;;22.10;69.40;;;;;;5049101;28;20115;-66
2023/07/17 03:06:08;;;;;;;5.75;3.17;;;22.00;69.50;;;;;;5048347;28;20168;-66
2023/07/17 03:08:53;;;;;;;5.35;3.00;;;22.00;69.50;;;;;;5034004;28;20119;-67
2023/07/17 03:11:39;;;;;;;5.05;3.00;;;21.90;69.50;;;;;;5054159;28;20028;-66
2023/07/17 03:14:25;;;;;;;6.40;2.78;;;21.90;69.80;;;;;;5052369;28;20033;-67
2023/07/17 03:17:11;;;;;;;6.25;3.28;;;21.90;69.90;;;;;;5047975;28;20037;-67
2023/07/17 03:19:58;;;;;;;5.78;2.80;;;21.90;70.00;;;;;;5060035;28;20036;-67
2023/07/17 03:22:44;;;;;;;5.57;2.95;;;21.90;70.50;;;;;;5052995;28;20045;-67
2023/07/17 03:25:30;;;;;;;5.90;2.85;;;21.90;70.10;;;;;;5047906;28;20033;-67
2023/07/17 03:28:16;;;;;;;6.03;2.47;;;21.80;70.40;;;;;;5053052;28;20041;-67
2023/07/17 03:31:02;;;;;;;6.28;3.67;;;21.80;70.40;;;;;;5050265;28;20056;-67
2023/07/17 03:33:48;;;;;;;4.47;2.75;;;21.80;70.60;;;;;;5052515;28;20489;-67
2023/07/17 03:36:34;;;;;;;6.53;3.03;;;21.80;70.70;;;;;;5065761;28;20046;-67
2023/07/17 03:39:19;;;;;;;5.80;2.60;;;21.80;70.70;;;;;;5052964;28;20074;-67
2023/07/17 03:42:10;;;;;;;4.68;2.88;;;21.80;70.90;;;;;;5051708;28;20496;-67
2023/07/17 03:44:59;;;;;;;3.63;2.55;;;21.80;71.00;;;;;;5038530;28;20040;-68
2023/07/17 03:47:44;;;;;;;3.40;2.50;;;21.70;71.10;;;;;;5052757;28;20036;-68
2023/07/17 03:50:31;;;;;;;5.90;2.63;;;21.70;71.30;;;;;;5055572;28;20087;-68
2023/07/17 03:53:17;;;;;;;4.90;2.97;;;21.60;71.60;;;;;;5051923;28;20041;-67
2023/07/17 03:56:03;;;;;;;7.03;3.03;;;21.60;71.60;;;;;;5067716;28;20401;-68
2023/07/17 03:58:50;;;;;;;4.40;2.97;;;21.60;71.80;;;;;;5052778;28;20040;-66
2023/07/17 04:01:35;;;;;;;7.63;3.72;;;21.60;71.80;;;;;;5049688;28;20482;-67
2023/07/17 04:04:21;;;;;;;7.32;3.30;;;21.70;71.80;;;;;;5050918;28;20036;-67
2023/07/17 04:07:07;;;;;;;3.95;2.63;;;21.70;72.10;;;;;;5036314;28;20394;-67
2023/07/17 04:09:53;;;;;;;5.40;3.55;;;21.70;72.10;;;;;;5063681;28;20025;-67
2023/07/17 04:12:39;;;;;;;3.80;2.22;;;21.80;72.30;;;;;;5051487;28;20788;-68
2023/07/17 04:15:25;;;;;;;5.53;3.33;;;21.80;72.10;;;;;;5050857;28;20548;-67
2023/07/17 04:18:11;;;;;;;4.10;2.97;;;21.80;72.20;;;;;;5050833;28;20115;-67
2023/07/17 04:20:57;;;;;;;5.80;3.00;;;21.80;72.40;;;;;;5065605;28;20111;-67
2023/07/17 04:23:43;;;;;;;5.28;2.63;;;21.90;72.30;;;;;;5051245;28;20112;-67
2023/07/17 04:26:29;;;;;;;6.15;3.45;;;21.90;72.20;;;;;;5052158;28;20051;-67
2023/07/17 04:29:15;;;;;;;6.95;3.25;;;21.90;72.20;;;;;;5051216;28;20047;-67
2023/07/17 04:32:01;;;;;;;6.53;2.97;;;21.90;72.20;;;;;;5050386;28;20130;-67
2023/07/17 04:34:47;;;;;;;6.97;2.95;;;21.90;72.10;;;;;;5050029;28;20497;-67
2023/07/17 04:37:33;;;;;;;6.15;3.25;;;21.90;71.90;;;;;;5047884;28;20048;-67
2023/07/17 04:40:18;;;;;;;11.60;3.80;;;21.90;72.00;;;;;;5050270;28;20033;-67
2023/07/17 04:43:04;;;;;;;4.95;3.05;;;21.90;71.80;;;;;;5051607;28;20037;-67
2023/07/17 04:45:50;;;;;;;5.82;3.30;;;22.00;71.90;;;;;;5067238;28;20271;-67
2023/07/17 04:48:36;;;;;;;4.18;2.80;;;22.00;71.70;;;;;;5051535;28;20064;-67
2023/07/17 04:51:22;;;;;;;4.50;3.28;;;22.00;72.00;;;;;;5048613;28;20072;-64
2023/07/17 04:54:08;;;;;;;5.35;3.50;;;22.00;72.10;;;;;;5050564;28;20037;-65
2023/07/17 04:56:54;;;;;;;5.93;2.97;;;22.00;72.10;;;;;;5050404;28;20440;-67
2023/07/17 04:59:41;;;;;;;4.95;2.80;;;22.10;72.20;;;;;;5049084;28;20045;-67
2023/07/17 05:02:27;;;;;;;5.13;3.38;;;22.10;72.10;;;;;;5054592;28;20037;-67
2023/07/17 05:05:13;;;;;;;4.28;2.55;;;22.20;72.00;;;;;;5036328;28;20108;-68
2023/07/17 05:07:59;;;;;;;5.43;3.75;;;22.30;71.90;;;;;;5064784;28;20038;-68
2023/07/17 05:11:02;;;;;;;5.20;3.53;;;22.40;71.90;;;;;;5058676;28;20040;-68
2023/07/17 05:13:48;;;;;;;5.85;2.88;;;22.50;72.00;;;;;;5046306;28;20029;-68
2023/07/17 05:16:34;;;;;;;3.97;2.65;;;22.50;72.10;;;;;;5052996;28;20509;-66
2023/07/17 05:19:19;;;;;;;6.65;3.20;;;22.60;72.40;;;;;;5049810;28;20470;-67
2023/07/17 05:22:05;;;;;;;6.13;3.33;;;22.60;72.20;;;;;;5050766;28;20068;-66
2023/07/17 05:24:51;;;;;;;5.68;3.20;;;22.70;71.90;;;;;;5049748;28;20032;-66
2023/07/17 05:27:37;;;;;;;8.95;3.80;;;22.70;71.50;;;;;;5049578;28;20068;-66
2023/07/17 05:30:23;;;;;;;8.02;3.17;;;22.70;71.50;;;;;;5049278;28;20095;-66
2023/07/17 05:33:09;;;;;;;9.40;3.95;;;22.70;71.40;;;;;;5050443;28;20033;-67
2023/07/17 05:35:55;;;;;;;5.53;3.42;;;22.70;71.50;;;;;;5047575;28;20040;-67
2023/07/17 05:38:41;;;;;;;6.15;3.65;;;22.70;71.80;;;;;;5048148;28;20052;-67
2023/07/17 05:41:27;;;;;;;6.85;3.55;;;22.70;71.80;;;;;;5054044;28;20472;-66
2023/07/17 05:44:13;;;;;;;5.68;2.88;;;22.70;71.80;;;;;;5069147;28;20482;-67
2023/07/17 05:46:59;;;;;;;6.15;2.75;;;22.70;71.60;;;;;;5060242;28;20462;-67
2023/07/17 05:49:45;;;;;;;4.13;2.63;;;22.70;71.50;;;;;;5047606;28;20048;-66
2023/07/17 05:52:31;;;;;;;6.07;3.20;;;22.70;71.30;;;;;;5048194;28;20044;-68
2023/07/17 05:55:17;;;;;;;7.07;3.25;;;22.70;71.20;;;;;;5049877;28;20029;-67
2023/07/17 05:58:03;;;;;;;4.50;2.78;;;22.70;71.20;;;;;;5041018;28;20032;-66
2023/07/17 06:00:49;;;;;;;5.28;3.35;;;22.70;71.10;;;;;;5049916;28;20048;-66
2023/07/17 06:03:35;;;;;;;4.25;2.85;;;22.70;71.00;;;;;;5052611;28;20036;-67
2023/07/17 06:06:21;;;;;;;8.48;2.80;;;22.80;71.00;;;;;;5064942;28;20044;-67
2023/07/17 06:09:07;;;;;;;6.93;3.38;;;22.80;70.80;;;;;;5069923;28;20075;-68
2023/07/17 06:11:53;;;;;;;5.75;2.80;;;22.80;70.70;;;;;;5053948;28;20394;-68
2023/07/17 06:14:39;;;;;;;7.47;3.22;;;22.90;70.70;;;;;;5056556;28;20479;-69
2023/07/17 06:17:25;;;;;;;4.82;3.05;;;22.90;70.40;;;;;;5047581;28;20060;-69
2023/07/17 06:20:12;;;;;;;5.53;3.42;;;22.90;70.10;;;;;;5060689;28;20033;-68
2023/07/17 06:22:57;;;;;;;5.55;2.90;;;23.00;70.00;;;;;;5049092;28;20033;-68
2023/07/17 06:25:45;;;;;;;4.50;3.00;;;23.00;69.90;;;;;;5049286;28;20029;-68
2023/07/17 06:28:31;;;;;;;7.18;3.65;;;23.10;69.90;;;;;;5047271;28;20090;-66
2023/07/17 06:31:17;;;;;;;5.47;3.50;;;23.10;69.70;;;;;;5056039;28;20065;-68
2023/07/17 06:34:03;;;;;;;4.07;2.85;;;23.20;69.70;;;;;;5056360;28;20130;-67
2023/07/17 06:36:52;;;;;;;4.95;3.17;;;23.30;69.50;;;;;;5060466;28;20171;-68
2023/07/17 06:39:38;;;;;;;5.22;2.80;;;23.50;69.50;;;;;;5047641;28;20081;-68
2023/07/17 06:42:24;;;;;;;5.57;2.72;;;23.60;69.00;;;;;;5056226;28;20409;-68
2023/07/17 06:45:11;;;;;;;7.05;3.15;;;23.80;68.70;;;;;;5047697;28;20486;-67
2023/07/17 06:47:57;;;;;;;5.82;2.63;;;23.90;68.80;;;;;;5055329;28;20036;-67
2023/07/17 06:50:44;;;;;;;6.38;2.90;;;24.10;68.90;;;;;;5057487;28;20029;-68
2023/07/17 06:53:31;;;;;;;5.60;3.17;;;24.20;68.00;;;;;;5051089;28;20033;-67
2023/07/17 06:56:17;;;;;;;7.35;3.50;;;24.30;67.70;;;;;;5049214;28;20033;-67
2023/07/17 06:59:03;;;;;;;5.93;3.35;;;24.30;67.50;;;;;;5048666;28;20050;-68
2023/07/17 07:01:49;;;;;;;10.63;3.40;;;24.40;67.10;;;;;;5049976;28;20071;-68
2023/07/17 07:04:35;;;;;;;9.95;3.95;;;24.40;66.90;;;;;;5052228;28;20037;-66
2023/07/17 07:07:20;;;;;;;6.22;2.95;;;24.50;66.80;;;;;;5053224;28;20123;-67
2023/07/17 07:10:07;;;;;;;5.28;3.67;;;24.50;66.80;;;;;;5055633;28;20033;-68
2023/07/17 07:12:53;;;;;;;6.57;3.13;;;24.60;67.10;;;;;;5054557;28;20041;-69
2023/07/17 07:15:40;;;;;;;5.35;3.40;;;24.60;66.60;;;;;;5060120;28;20051;-68
2023/07/17 07:18:26;;;;;;;5.00;3.10;;;24.70;65.80;;;;;;5053129;28;20033;-68
2023/07/17 07:21:12;;;;;;;6.40;2.70;;;24.70;65.30;;;;;;5057576;28;20051;-67
2023/07/17 07:23:57;;;;;;;5.50;2.65;;;24.70;64.40;;;;;;5052778;28;20028;-68
2023/07/17 07:26:43;;;;;;;8.35;3.00;;;24.80;64.60;;;;;;5051612;28;20385;-69
2023/07/17 07:29:29;;;;;;;3.75;2.58;;;24.80;64.40;;;;;;5052048;28;20401;-69
2023/07/17 07:32:15;;;;;;;8.20;3.10;;;24.80;64.50;;;;;;5052764;28;20406;-68
2023/07/17 07:35:01;;;;;;;4.55;2.80;;;24.90;63.80;;;;;;5052085;28;20037;-68
2023/07/17 07:37:47;;;;;;;4.53;2.72;;;24.80;63.70;;;;;;5039736;28;20092;-68
2023/07/17 07:40:33;;;;;;;6.68;2.95;;;24.90;63.80;;;;;;5053254;28;20098;-68
2023/07/17 07:43:19;;;;;;;6.95;3.63;;;24.80;63.20;;;;;;5051965;28;20028;-68
2023/07/17 07:46:05;;;;;;;5.43;3.00;;;24.80;63.20;;;;;;5051379;28;20486;-67
2023/07/17 07:48:51;;;;;;;5.18;2.65;;;24.80;63.30;;;;;;5063429;28;20425;-67
2023/07/17 07:51:37;;;;;;;5.18;2.72;;;24.80;63.20;;;;;;5054367;28;20032;-69
2023/07/17 07:54:23;;;;;;;4.82;2.97;;;24.80;63.60;;;;;;5054863;28;20032;-68
2023/07/17 07:57:09;;;;;;;5.43;2.95;;;24.80;63.40;;;;;;5052234;28;20047;-67
2023/07/17 07:59:55;;;;;;;7.40;2.60;;;24.80;63.00;;;;;;5051951;28;20033;-68
2023/07/17 08:02:41;;;;;;;4.30;2.92;;;24.80;63.00;;;;;;5051809;28;20059;-68
2023/07/17 08:05:27;;;;;;;4.13;2.85;;;24.90;62.70;;;;;;5064108;28;20540;-68
2023/07/17 08:08:13;;;;;;;6.70;2.80;;;24.90;62.90;;;;;;5049945;28;20032;-68
2023/07/17 08:10:59;;;;;;;4.70;3.08;;;24.90;62.90;;;;;;5051471;28;20037;-67
2023/07/17 08:13:44;;;;;;;7.00;3.05;;;24.90;62.80;;;;;;5049825;28;20040;-67
2023/07/17 08:16:30;;;;;;;4.80;3.00;;;25.00;62.70;;;;;;5061184;28;20064;-67
2023/07/17 08:19:17;;;;;;;4.55;2.65;;;25.00;62.40;;;;;;5058398;28;20036;-67
2023/07/17 08:22:03;;;;;;;4.22;2.50;;;25.00;62.50;;;;;;5051474;28;20132;-67
2023/07/17 08:24:49;;;;;;;5.13;2.88;;;25.00;62.20;;;;;;5052021;28;20075;-67
2023/07/17 08:27:35;;;;;;;7.18;3.20;;;25.10;62.20;;;;;;5050645;28;20037;-67
2023/07/17 08:30:21;;;;;;;5.25;2.83;;;25.10;62.10;;;;;;5054999;28;20412;-67
2023/07/17 08:33:07;;;;;;;4.55;2.75;;;25.10;61.80;;;;;;5051775;28;20103;-67
2023/07/17 08:35:53;;;;;;;7.20;2.45;;;25.20;61.90;;;;;;5048780;28;20029;-67
2023/07/17 08:38:39;;;;;;;4.88;2.33;;;25.30;62.00;;;;;;5050361;28;20037;-67
2023/07/17 08:41:25;;;;;;;5.30;2.83;;;25.30;62.00;;;;;;5051474;28;20048;-67
2023/07/17 08:44:15;;;;;;;11.20;3.17;;;25.30;61.50;;;;;;5054103;28;20062;-68
2023/07/17 08:47:05;;;;;;;7.78;2.50;;;25.40;61.10;;;;;;5051856;28;20032;-66
2023/07/17 08:49:52;;;;;;;6.95;2.45;;;25.40;61.00;;;;;;5056329;28;20174;-66
2023/07/17 08:52:38;;;;;;;9.07;2.60;;;25.40;60.60;;;;;;5047168;28;20033;-66
2023/07/17 08:55:29;;;;;;;4.28;2.65;;;25.40;60.60;;;;;;5051883;28;20120;-66
2023/07/17 08:58:16;;;;;;;4.63;2.60;;;25.50;60.50;;;;;;5060388;28;20110;-66
2023/07/17 09:01:02;;;;;;;4.32;2.80;;;25.50;60.30;;;;;;5051132;28;20045;-67
2023/07/17 09:03:51;;;;;;;4.53;2.20;;;25.60;59.60;;;;;;5049136;28;20163;-67
2023/07/17 09:06:37;;;;;;;6.18;2.85;;;25.60;59.40;;;;;;5049592;28;22788;-67
2023/07/17 09:09:23;;;;;;;4.25;2.13;;;25.60;59.20;;;;;;5069072;28;20650;-67
2023/07/17 09:12:11;;;;;;;6.75;2.63;;;25.70;59.10;;;;;;5061544;28;20433;-67
2023/07/17 09:14:57;;;;;;;7.22;2.83;;;25.70;59.10;;;;;;5064225;28;20485;-66
2023/07/17 09:17:44;;;;;;;7.07;2.72;;;25.80;58.90;;;;;;5052539;28;20126;-68
2023/07/17 09:20:30;;;;;;;4.22;2.60;;;25.80;58.80;;;;;;5057001;28;20044;-66
2023/07/17 09:23:16;;;;;;;6.18;3.08;;;25.80;58.70;;;;;;5060527;28;20029;-67
2023/07/17 09:26:03;;;;;;;4.55;2.28;;;25.90;58.50;;;;;;5057806;28;20488;-66
2023/07/17 09:28:57;;;;;;;4.60;2.35;;;26.00;58.50;;;;;;5049596;28;20025;-66
2023/07/17 09:31:43;;;;;;;6.75;2.75;;;26.00;58.60;;;;;;5050242;28;20120;-66
2023/07/17 09:34:29;;;;;;;4.13;2.25;;;26.10;58.60;;;;;;5050035;28;20051;-66
2023/07/17 09:37:15;;;;;;;6.18;3.13;;;26.20;58.20;;;;;;5049572;28;20067;-66
2023/07/17 09:40:11;;;;;;;3.97;2.55;;;26.20;57.30;;;;;;5051313;28;20048;-66
2023/07/17 09:42:57;;;;;;;6.10;2.33;;;26.20;57.30;;;;;;5037477;28;20459;-66
2023/07/17 09:45:45;;;;;;;5.30;2.55;;;26.30;57.50;;;;;;5049767;28;20444;-67
2023/07/17 09:48:31;;;;;;;5.18;2.90;;;26.40;57.40;;;;;;5050822;28;20486;-69
2023/07/17 09:51:19;;;;;;;9.43;2.47;;;26.40;57.20;;;;;;5047946;28;20064;-65
2023/07/17 09:54:05;;;;;;;3.90;2.50;;;26.40;57.00;;;;;;5065788;28;20036;-66
2023/07/17 09:56:52;;;;;;;4.82;2.60;;;26.40;56.80;;;;;;5045323;28;20083;-66
2023/07/17 09:59:42;;;;;;;8.60;3.17;;;26.50;57.00;;;;;;5049908;28;20107;-65
2023/07/17 10:02:36;;;;;;;3.55;2.35;;;26.50;57.00;;;;;;5057765;28;20507;-68
2023/07/17 10:05:22;;;;;;;5.40;2.78;;;26.60;57.00;;;;;;5055408;28;20403;-67
2023/07/17 10:08:10;;;;;;;4.50;2.17;;;26.60;57.00;;;;;;5042304;28;20037;-68
2023/07/17 10:10:56;;;;;;;6.50;2.67;;;26.70;56.80;;;;;;5048824;28;20029;-66
2023/07/17 10:13:47;;;;;;;5.65;2.22;;;26.70;56.70;;;;;;5048670;28;20043;-68
2023/07/17 10:16:33;;;;;;;5.22;3.42;;;26.80;56.40;;;;;;5049111;28;20505;-66
2023/07/17 10:19:19;;;;;;;6.45;2.70;;;26.80;56.30;;;;;;5049970;28;20036;-66
2023/07/17 10:22:05;;;;;;;10.00;3.30;;;26.90;56.40;;;;;;5059483;28;20706;-66
2023/07/17 10:24:51;;;;;;;6.82;3.30;;;26.90;56.50;;;;;;5049163;28;20032;-66
2023/07/17 10:27:39;;;;;;;5.22;2.60;;;26.90;56.20;;;;;;5048826;28;20562;-66
2023/07/17 10:30:25;;;;;;;7.78;2.88;;;27.10;56.10;;;;;;5065025;28;20033;-66
2023/07/17 10:33:19;;;;;;;3.90;2.20;;;27.20;56.10;;;;;;5055972;28;20042;-68
2023/07/17 10:36:05;;;;;;;4.63;2.88;;;27.30;55.80;;;;;;5054900;28;20033;-67
2023/07/17 10:38:53;;;;;;;6.50;3.00;;;27.40;55.70;;;;;;5055076;28;20037;-68
2023/07/17 10:41:39;;;;;;;6.95;2.70;;;27.40;55.00;;;;;;5041461;28;20045;-69
2023/07/17 10:44:24;;;;;;;9.25;3.10;;;27.50;55.40;;;;;;5056846;28;20095;-70
2023/07/17 10:47:10;;;;;;;7.40;3.03;;;27.60;55.30;;;;;;5061902;28;20044;-70
2023/07/17 10:50:05;;;;;;;6.75;2.92;;;27.70;54.90;;;;;;5068961;28;20036;-71
2023/07/17 10:52:51;;;;;;;9.43;2.47;;;27.70;54.30;;;;;;5056003;28;20036;-70
2023/07/17 10:55:37;;;;;;;9.07;2.67;;;27.70;54.30;;;;;;5052704;28;20074;-69
2023/07/17 10:58:23;;;;;;;4.90;3.10;;;27.70;54.40;;;;;;5065878;28;20060;-69
2023/07/17 11:01:09;;;;;;;9.82;2.47;;;27.80;54.20;;;;;;5051246;28;20409;-69
2023/07/17 11:03:59;;;;;;;12.63;3.15;;;27.90;54.10;;;;;;5052443;28;20397;-70
2023/07/17 11:06:45;;;;;;;4.90;2.25;;;27.90;53.70;;;;;;5052474;28;20037;-69
2023/07/17 11:09:31;;;;;;;5.68;3.35;;;27.90;53.70;;;;;;5065252;28;20029;-70
2023/07/17 11:12:17;;;;;;;7.90;2.55;;;27.90;53.10;;;;;;5058621;28;20036;-70
2023/07/17 11:15:05;;;;;;;5.95;2.28;;;27.90;52.60;;;;;;5052652;28;20029;-65
2023/07/17 11:17:51;;;;;;;3.65;2.35;;;27.80;52.20;;;;;;5053634;28;20057;-69
2023/07/17 11:20:37;;;;;;;7.10;2.92;;;27.80;52.50;;;;;;5052967;28;20106;-68
2023/07/17 11:23:23;;;;;;;6.43;2.50;;;27.90;52.70;;;;;;5059539;28;20089;-67
2023/07/17 11:26:09;;;;;;;4.22;2.10;;;28.00;53.00;;;;;;5068397;28;20040;-70
2023/07/17 11:28:57;;;;;;;3.58;1.98;;;28.10;52.00;;;;;;5052282;28;20489;-71
2023/07/17 11:31:44;;;;;;;4.13;2.50;;;28.20;51.90;;;;;;5044168;28;20473;-78
2023/07/17 11:34:30;;;;;;;3.35;2.03;;;28.20;51.70;;;;;;5051716;28;20096;-79
2023/07/17 11:37:34;;;;;;;8.15;2.47;;;28.30;51.90;;;;;;5056318;28;20049;-65
2023/07/17 11:40:20;;;;;;;4.72;2.50;;;28.30;52.20;;;;;;5058106;28;20040;-73
2023/07/17 11:43:06;;;;;;;6.85;2.50;;;28.30;52.10;;;;;;5056331;28;20044;-71
2023/07/17 11:46:01;;;;;;;4.13;2.42;;;28.30;51.80;;;;;;5050884;28;20043;-69
2023/07/17 11:48:47;;;;;;;4.65;2.22;;;28.30;51.70;;;;;;5052107;28;20044;-68
2023/07/17 11:51:33;;;;;;;7.20;2.83;;;28.20;51.80;;;;;;5038455;28;20029;-69
2023/07/17 11:54:19;;;;;;;4.85;2.28;;;28.30;52.00;;;;;;5062478;28;20036;-68
2023/07/17 11:57:06;;;;;;;3.40;2.20;;;28.30;51.90;;;;;;5051702;28;20120;-66
2023/07/17 12:00:00;;;;;;;4.05;2.42;;;28.40;52.00;;;;;;5051297;28;20508;-64
2023/07/17 12:02:46;;;;;;;6.53;2.38;;;28.40;52.00;;;;;;5050125;28;20041;-64
2023/07/17 12:05:32;;;;;;;6.55;2.00;;;28.40;51.70;;;;;;5051250;28;20037;-64
2023/07/17 12:08:18;;;;;;;5.55;2.50;;;28.40;50.60;;;;;;5051178;28;20108;-65
2023/07/17 12:11:04;;;;;;;7.15;2.80;;;28.40;49.90;;;;;;5051565;28;20036;-64
2023/07/17 12:13:50;;;;;;;6.00;2.15;;;28.40;49.70;;;;;;5050272;28;20029;-65
2023/07/17 12:16:36;;;;;;;3.85;2.03;;;28.50;49.30;;;;;;5050563;28;20039;-64
2023/07/17 12:19:22;;;;;;;8.70;2.45;;;28.50;49.30;;;;;;5049689;28;20033;-66
2023/07/17 12:22:08;;;;;;;8.60;2.80;;;28.60;49.50;;;;;;5045803;28;20040;-65
2023/07/17 12:24:56;;;;;;;9.38;2.45;;;28.60;49.60;;;;;;5058991;28;20029;-64
2023/07/17 12:27:42;;;;;;;5.93;2.47;;;28.70;49.30;;;;;;5060423;28;20385;-68
2023/07/17 12:30:29;;;;;;;6.65;2.22;;;28.70;49.10;;;;;;5057650;28;20035;-71
2023/07/17 12:33:16;;;;;;;11.65;2.20;;;28.70;49.30;;;;;;5057708;28;20041;-71
2023/07/17 12:36:01;;;;;;;5.28;2.60;;;28.80;49.50;;;;;;5035912;28;20036;-67
2023/07/17 12:38:47;;;;;;;6.32;2.85;;;28.70;48.90;;;;;;5050765;28;20043;-68
2023/07/17 12:41:33;;;;;;;5.60;2.03;;;28.70;49.10;;;;;;5050828;28;20485;-69
2023/07/17 12:44:19;;;;;;;4.20;2.03;;;28.70;49.20;;;;;;5050334;28;20075;-68
2023/07/17 12:47:05;;;;;;;5.85;2.47;;;28.80;48.70;;;;;;5049166;28;20033;-70
2023/07/17 12:49:52;;;;;;;3.92;2.03;;;28.80;48.60;;;;;;5060177;28;20488;-69
2023/07/17 12:52:38;;;;;;;3.63;2.58;;;28.70;48.50;;;;;;5050868;28;20563;-66
2023/07/17 12:55:24;;;;;;;5.72;2.53;;;28.70;48.40;;;;;;5051985;28;20033;-69
2023/07/17 12:58:10;;;;;;;3.35;2.22;;;28.60;48.40;;;;;;5049303;28;20041;-71
2023/07/17 13:00:55;;;;;;;4.38;2.10;;;28.60;48.20;;;;;;5057987;28;20048;-69
2023/07/17 13:03:41;;;;;;;3.05;1.70;;;28.70;48.30;;;;;;5052812;28;20032;-69
2023/07/17 13:06:27;;;;;;;5.03;1.95;;;28.70;48.20;;;;;;5065327;28;20048;-68
2023/07/17 13:09:13;;;;;;;3.55;2.15;;;28.80;48.10;;;;;;5051539;28;20033;-67
2023/07/17 13:11:59;;;;;;;3.50;2.30;;;28.90;48.00;;;;;;5051766;28;20363;-69
2023/07/17 13:14:45;;;;;;;4.28;1.80;;;29.00;47.90;;;;;;5050072;28;20037;-64
2023/07/17 13:17:31;;;;;;;5.63;2.63;;;29.10;47.60;;;;;;5035434;28;20042;-72
2023/07/17 13:20:17;;;;;;;9.88;4.43;;;29.20;47.70;;;;;;5067018;28;20473;-72
2023/07/17 13:23:03;;;;;;;7.78;3.53;;;29.20;47.70;;;;;;5055818;28;20056;-69
2023/07/17 13:25:49;;;;;;;7.20;2.95;;;29.30;47.60;;;;;;5054394;28;20487;-68
2023/07/17 13:28:35;;;;;;;7.40;2.55;;;29.40;48.50;;;;;;5068671;28;20060;-70
2023/07/17 13:31:22;;;;;;;5.53;2.90;;;29.50;47.60;;;;;;5049075;28;20039;-68
2023/07/17 13:34:08;;;;;;;6.32;2.83;;;29.50;47.50;;;;;;5057937;28;20036;-68
2023/07/17 13:36:57;;;;;;;3.35;1.65;;;29.60;46.80;;;;;;5052497;28;20044;-67
2023/07/17 13:39:43;;;;;;;8.85;2.88;;;29.70;46.90;;;;;;5049497;28;20056;-67
2023/07/17 13:42:29;;;;;;;6.28;2.67;;;29.80;47.10;;;;;;5059996;28;20040;-69
2023/07/17 13:45:15;;;;;;;5.40;2.50;;;30.00;46.20;;;;;;5059304;28;20529;-69
2023/07/17 13:48:01;;;;;;;8.40;3.35;;;30.00;46.40;;;;;;5052604;28;20375;-69
2023/07/17 13:50:47;;;;;;;6.88;3.08;;;30.20;46.30;;;;;;5049623;28;20040;-69
2023/07/17 13:53:33;;;;;;;7.10;2.70;;;30.20;46.30;;;;;;5049303;28;20445;-67
2023/07/17 13:56:19;;;;;;;3.80;1.88;;;30.30;45.90;;;;;;5055365;28;20033;-68
2023/07/17 13:59:07;;;;;;;3.40;2.08;;;30.40;46.20;;;;;;5049595;28;20057;-73
2023/07/17 14:01:53;;;;;;;8.20;2.47;;;30.30;45.70;;;;;;5060899;28;20044;-68
2023/07/17 14:04:39;;;;;;;7.90;3.05;;;30.20;46.30;;;;;;5051281;28;20044;-69
2023/07/17 14:07:25;;;;;;;4.68;2.20;;;30.10;46.20;;;;;;5048901;28;20072;-69
2023/07/17 14:10:11;;;;;;;4.22;2.75;;;30.00;45.80;;;;;;5053188;28;20804;-70
2023/07/17 14:12:57;;;;;;;5.70;2.00;;;29.90;46.00;;;;;;5039493;28;20029;-73
2023/07/17 14:15:43;;;;;;;4.85;2.38;;;30.00;46.40;;;;;;5067056;28;20048;-73
2023/07/17 14:18:29;;;;;;;7.13;2.40;;;30.10;46.70;;;;;;5046828;28;20119;-73
2023/07/17 14:21:15;;;;;;;5.95;2.53;;;30.20;46.40;;;;;;5049403;28;20041;-69
2023/07/17 14:24:01;;;;;;;8.30;3.13;;;30.30;46.30;;;;;;5049067;28;20031;-71